sensor_id;sensor_type;location;lat;lon;timestamp;P1;durP1;ratioP1;P2;durP2;ratioP2
16577;SDS011;8401;52.528;13.340;2023-04-06T00:01:35;5.17;;;3.33;;
16577;SDS011;8401;52.528;13.340;2023-04-06T00:04:01;5.20;;;3.70;;
16577;SDS011;8401;52.528;13.340;2023-04-06T00:06:27;7.90;;;4.23;;
16577;SDS011;8401;52.528;13.340;2023-04-06T00:08:53;4.67;;;3.60;;
16577;SDS011;8401;52.528;13.340;2023-04-06T00:11:19;5.80;;;4.17;;
16577;SDS011;8401;52.528;13.340;2023-04-06T00:13:45;4.00;;;3.53;;
16577;SDS011;8401;52.528;13.340;2023-04-06T00:16:10;7.73;;;3.77;;
16577;SDS011;8401;52.528;13.340;2023-04-06T00:18:36;5.60;;;4.03;;
16577;SDS011;8401;52.528;13.340;2023-04-06T00:21:02;6.43;;;4.27;;
16577;SDS011;8401;52.528;13.340;2023-04-06T00:23:28;4.93;;;3.80;;
16577;SDS011;8401;52.528;13.340;2023-04-06T00:25:54;5.67;;;3.90;;
16577;SDS011;8401;52.528;13.340;2023-04-06T00:28:20;6.83;;;3.83;;
16577;SDS011;8401;52.528;13.340;2023-04-06T00:30:50;6.57;;;4.17;;
16577;SDS011;8401;52.528;13.340;2023-04-06T00:33:18;6.20;;;4.60;;
16577;SDS011;8401;52.528;13.340;2023-04-06T00:35:44;5.87;;;3.50;;
16577;SDS011;8401;52.528;13.340;2023-04-06T00:38:11;6.30;;;4.07;;
16577;SDS011;8401;52.528;13.340;2023-04-06T00:40:37;5.43;;;3.60;;
16577;SDS011;8401;52.528;13.340;2023-04-06T00:43:04;4.43;;;3.97;;
16577;SDS011;8401;52.528;13.340;2023-04-06T00:45:36;5.70;;;4.27;;
16577;SDS011;8401;52.528;13.340;2023-04-06T00:48:04;5.83;;;3.70;;
16577;SDS011;8401;52.528;13.340;2023-04-06T00:50:31;6.37;;;3.80;;
16577;SDS011;8401;52.528;13.340;2023-04-06T00:52:58;5.93;;;3.67;;
16577;SDS011;8401;52.528;13.340;2023-04-06T00:55:24;7.90;;;3.73;;
16577;SDS011;8401;52.528;13.340;2023-04-06T00:57:51;4.83;;;3.60;;
16577;SDS011;8401;52.528;13.340;2023-04-06T01:00:17;6.80;;;3.30;;
16577;SDS011;8401;52.528;13.340;2023-04-06T01:02:43;5.53;;;3.80;;
16577;SDS011;8401;52.528;13.340;2023-04-06T01:05:10;4.70;;;3.57;;
16577;SDS011;8401;52.528;13.340;2023-04-06T01:07:36;5.70;;;4.23;;
16577;SDS011;8401;52.528;13.340;2023-04-06T01:10:01;4.77;;;3.50;;
16577;SDS011;8401;52.528;13.340;2023-04-06T01:12:27;6.43;;;3.60;;
16577;SDS011;8401;52.528;13.340;2023-04-06T01:14:53;4.73;;;3.57;;
16577;SDS011;8401;52.528;13.340;2023-04-06T01:17:19;7.53;;;3.80;;
16577;SDS011;8401;52.528;13.340;2023-04-06T01:19:45;4.90;;;3.53;;
16577;SDS011;8401;52.528;13.340;2023-04-06T01:22:17;5.53;;;3.40;;
16577;SDS011;8401;52.528;13.340;2023-04-06T01:24:44;5.63;;;3.70;;
16577;SDS011;8401;52.528;13.340;2023-04-06T01:27:10;6.00;;;3.80;;
16577;SDS011;8401;52.528;13.340;2023-04-06T01:29:36;7.47;;;3.73;;
16577;SDS011;8401;52.528;13.340;2023-04-06T01:32:02;5.67;;;4.10;;
16577;SDS011;8401;52.528;13.340;2023-04-06T01:34:28;5.37;;;3.67;;
16577;SDS011;8401;52.528;13.340;2023-04-06T01:36:53;4.30;;;3.50;;
16577;SDS011;8401;52.528;13.340;2023-04-06T01:39:19;5.03;;;3.30;;
16577;SDS011;8401;52.528;13.340;2023-04-06T01:41:45;4.67;;;3.43;;
16577;SDS011;8401;52.528;13.340;2023-04-06T01:44:17;3.97;;;3.30;;
16577;SDS011;8401;52.528;13.340;2023-04-06T01:46:44;5.83;;;3.73;;
16577;SDS011;8401;52.528;13.340;2023-04-06T01:49:12;5.20;;;3.70;;
16577;SDS011;8401;52.528;13.340;2023-04-06T01:51:38;6.77;;;4.27;;
16577;SDS011;8401;52.528;13.340;2023-04-06T01:54:04;4.70;;;3.80;;
16577;SDS011;8401;52.528;13.340;2023-04-06T01:56:29;7.93;;;4.03;;
16577;SDS011;8401;52.528;13.340;2023-04-06T01:58:55;6.23;;;3.70;;
16577;SDS011;8401;52.528;13.340;2023-04-06T02:01:21;5.83;;;3.80;;
16577;SDS011;8401;52.528;13.340;2023-04-06T02:03:47;5.37;;;3.97;;
16577;SDS011;8401;52.528;13.340;2023-04-06T02:06:12;7.27;;;3.90;;
16577;SDS011;8401;52.528;13.340;2023-04-06T02:08:38;7.10;;;3.63;;
16577;SDS011;8401;52.528;13.340;2023-04-06T02:11:04;5.60;;;3.57;;
16577;SDS011;8401;52.528;13.340;2023-04-06T02:13:30;6.50;;;3.93;;
16577;SDS011;8401;52.528;13.340;2023-04-06T02:15:56;6.97;;;4.37;;
16577;SDS011;8401;52.528;13.340;2023-04-06T02:18:22;6.23;;;4.23;;
16577;SDS011;8401;52.528;13.340;2023-04-06T02:20:47;7.20;;;4.23;;
16577;SDS011;8401;52.528;13.340;2023-04-06T02:23:13;6.43;;;4.27;;
16577;SDS011;8401;52.528;13.340;2023-04-06T02:25:39;6.43;;;3.80;;
16577;SDS011;8401;52.528;13.340;2023-04-06T02:28:05;4.73;;;3.80;;
16577;SDS011;8401;52.528;13.340;2023-04-06T02:30:31;10.13;;;3.97;;
16577;SDS011;8401;52.528;13.340;2023-04-06T02:32:57;5.97;;;3.80;;
16577;SDS011;8401;52.528;13.340;2023-04-06T02:35:25;6.13;;;4.20;;
16577;SDS011;8401;52.528;13.340;2023-04-06T02:37:52;6.80;;;4.17;;
16577;SDS011;8401;52.528;13.340;2023-04-06T02:40:18;7.40;;;4.23;;
16577;SDS011;8401;52.528;13.340;2023-04-06T02:42:44;7.80;;;4.30;;
16577;SDS011;8401;52.528;13.340;2023-04-06T02:45:10;8.17;;;4.70;;
16577;SDS011;8401;52.528;13.340;2023-04-06T02:47:35;6.23;;;3.93;;
16577;SDS011;8401;52.528;13.340;2023-04-06T02:50:01;5.10;;;3.30;;
16577;SDS011;8401;52.528;13.340;2023-04-06T02:52:27;5.47;;;3.73;;
16577;SDS011;8401;52.528;13.340;2023-04-06T02:54:52;4.80;;;3.50;;
16577;SDS011;8401;52.528;13.340;2023-04-06T02:57:18;7.03;;;3.90;;
16577;SDS011;8401;52.528;13.340;2023-04-06T02:59:44;4.47;;;3.83;;
16577;SDS011;8401;52.528;13.340;2023-04-06T03:02:10;4.97;;;4.10;;
16577;SDS011;8401;52.528;13.340;2023-04-06T03:04:35;7.33;;;4.00;;
16577;SDS011;8401;52.528;13.340;2023-04-06T03:07:01;4.80;;;3.83;;
16577;SDS011;8401;52.528;13.340;2023-04-06T03:09:27;5.17;;;3.90;;
16577;SDS011;8401;52.528;13.340;2023-04-06T03:11:53;5.43;;;3.87;;
16577;SDS011;8401;52.528;13.340;2023-04-06T03:14:18;6.03;;;3.77;;
16577;SDS011;8401;52.528;13.340;2023-04-06T03:16:47;6.43;;;4.43;;
16577;SDS011;8401;52.528;13.340;2023-04-06T03:19:13;5.30;;;3.80;;
16577;SDS011;8401;52.528;13.340;2023-04-06T03:21:39;6.00;;;4.30;;
16577;SDS011;8401;52.528;13.340;2023-04-06T03:24:05;7.93;;;4.47;;
16577;SDS011;8401;52.528;13.340;2023-04-06T03:26:30;7.10;;;3.80;;
16577;SDS011;8401;52.528;13.340;2023-04-06T03:28:56;9.33;;;4.53;;
16577;SDS011;8401;52.528;13.340;2023-04-06T03:31:22;7.93;;;4.40;;
16577;SDS011;8401;52.528;13.340;2023-04-06T03:33:47;6.30;;;3.63;;
16577;SDS011;8401;52.528;13.340;2023-04-06T03:36:13;6.47;;;4.27;;
16577;SDS011;8401;52.528;13.340;2023-04-06T03:38:39;6.93;;;4.30;;
16577;SDS011;8401;52.528;13.340;2023-04-06T03:41:05;5.40;;;4.47;;
16577;SDS011;8401;52.528;13.340;2023-04-06T03:43:30;5.90;;;4.47;;
16577;SDS011;8401;52.528;13.340;2023-04-06T03:45:56;7.70;;;4.50;;
16577;SDS011;8401;52.528;13.340;2023-04-06T03:48:22;7.70;;;4.77;;
16577;SDS011;8401;52.528;13.340;2023-04-06T03:50:47;6.73;;;4.57;;
16577;SDS011;8401;52.528;13.340;2023-04-06T03:53:13;9.30;;;4.90;;
16577;SDS011;8401;52.528;13.340;2023-04-06T03:55:39;6.47;;;4.83;;
16577;SDS011;8401;52.528;13.340;2023-04-06T03:58:04;7.03;;;4.80;;
16577;SDS011;8401;52.528;13.340;2023-04-06T04:00:30;8.10;;;4.80;;
16577;SDS011;8401;52.528;13.340;2023-04-06T04:02:57;7.87;;;4.93;;
16577;SDS011;8401;52.528;13.340;2023-04-06T04:05:23;7.07;;;4.83;;
16577;SDS011;8401;52.528;13.340;2023-04-06T04:07:50;7.30;;;5.60;;
16577;SDS011;8401;52.528;13.340;2023-04-06T04:10:17;7.17;;;5.13;;
16577;SDS011;8401;52.528;13.340;2023-04-06T04:12:42;6.97;;;4.60;;
16577;SDS011;8401;52.528;13.340;2023-04-06T04:15:08;5.50;;;4.90;;
16577;SDS011;8401;52.528;13.340;2023-04-06T04:17:34;8.07;;;5.30;;
16577;SDS011;8401;52.528;13.340;2023-04-06T04:20:00;9.30;;;5.77;;
16577;SDS011;8401;52.528;13.340;2023-04-06T04:22:26;8.40;;;5.90;;
16577;SDS011;8401;52.528;13.340;2023-04-06T04:24:52;7.50;;;5.50;;
16577;SDS011;8401;52.528;13.340;2023-04-06T04:27:18;9.17;;;6.03;;
16577;SDS011;8401;52.528;13.340;2023-04-06T04:29:44;7.57;;;6.07;;
16577;SDS011;8401;52.528;13.340;2023-04-06T04:32:10;9.20;;;5.77;;
16577;SDS011;8401;52.528;13.340;2023-04-06T04:34:36;6.60;;;5.60;;
16577;SDS011;8401;52.528;13.340;2023-04-06T04:37:05;8.57;;;5.97;;
16577;SDS011;8401;52.528;13.340;2023-04-06T04:39:31;8.43;;;6.17;;
16577;SDS011;8401;52.528;13.340;2023-04-06T04:41:56;6.60;;;5.77;;
16577;SDS011;8401;52.528;13.340;2023-04-06T04:44:22;9.80;;;5.70;;
16577;SDS011;8401;52.528;13.340;2023-04-06T04:46:48;8.30;;;6.20;;
16577;SDS011;8401;52.528;13.340;2023-04-06T04:49:14;7.67;;;6.13;;
16577;SDS011;8401;52.528;13.340;2023-04-06T04:51:39;8.00;;;6.17;;
16577;SDS011;8401;52.528;13.340;2023-04-06T04:54:05;10.27;;;6.87;;
16577;SDS011;8401;52.528;13.340;2023-04-06T04:56:31;8.20;;;6.30;;
16577;SDS011;8401;52.528;13.340;2023-04-06T04:58:56;13.57;;;6.50;;
16577;SDS011;8401;52.528;13.340;2023-04-06T05:01:22;9.40;;;6.03;;
16577;SDS011;8401;52.528;13.340;2023-04-06T05:03:48;9.00;;;7.13;;
16577;SDS011;8401;52.528;13.340;2023-04-06T05:06:13;10.27;;;7.03;;
16577;SDS011;8401;52.528;13.340;2023-04-06T05:08:40;13.10;;;6.37;;
16577;SDS011;8401;52.528;13.340;2023-04-06T05:11:06;9.50;;;6.53;;
16577;SDS011;8401;52.528;13.340;2023-04-06T05:13:32;8.60;;;6.87;;
16577;SDS011;8401;52.528;13.340;2023-04-06T05:15:58;11.00;;;6.37;;
16577;SDS011;8401;52.528;13.340;2023-04-06T05:18:23;9.03;;;6.93;;
16577;SDS011;8401;52.528;13.340;2023-04-06T05:20:49;8.17;;;6.73;;
16577;SDS011;8401;52.528;13.340;2023-04-06T05:23:16;10.60;;;7.37;;
16577;SDS011;8401;52.528;13.340;2023-04-06T05:25:42;10.17;;;6.90;;
16577;SDS011;8401;52.528;13.340;2023-04-06T05:28:08;11.97;;;8.40;;
16577;SDS011;8401;52.528;13.340;2023-04-06T05:30:33;8.10;;;6.37;;
16577;SDS011;8401;52.528;13.340;2023-04-06T05:33:00;10.67;;;7.00;;
16577;SDS011;8401;52.528;13.340;2023-04-06T05:35:27;9.17;;;7.27;;
16577;SDS011;8401;52.528;13.340;2023-04-06T05:37:52;10.67;;;6.80;;
16577;SDS011;8401;52.528;13.340;2023-04-06T05:40:18;14.97;;;7.10;;
16577;SDS011;8401;52.528;13.340;2023-04-06T05:42:44;10.47;;;6.97;;
16577;SDS011;8401;52.528;13.340;2023-04-06T05:45:10;15.87;;;7.67;;
16577;SDS011;8401;52.528;13.340;2023-04-06T05:47:41;15.17;;;8.33;;
16577;SDS011;8401;52.528;13.340;2023-04-06T05:50:14;24.97;;;7.90;;
16577;SDS011;8401;52.528;13.340;2023-04-06T05:52:40;14.53;;;7.60;;
16577;SDS011;8401;52.528;13.340;2023-04-06T05:55:11;15.13;;;8.10;;
16577;SDS011;8401;52.528;13.340;2023-04-06T05:57:37;15.93;;;8.70;;
16577;SDS011;8401;52.528;13.340;2023-04-06T06:00:03;9.70;;;7.97;;
16577;SDS011;8401;52.528;13.340;2023-04-06T06:02:31;15.33;;;7.57;;
16577;SDS011;8401;52.528;13.340;2023-04-06T06:04:57;10.80;;;7.53;;
16577;SDS011;8401;52.528;13.340;2023-04-06T06:07:23;17.37;;;8.67;;
16577;SDS011;8401;52.528;13.340;2023-04-06T06:09:48;13.27;;;7.47;;
16577;SDS011;8401;52.528;13.340;2023-04-06T06:12:14;12.07;;;7.17;;
16577;SDS011;8401;52.528;13.340;2023-04-06T06:14:40;17.97;;;8.17;;
16577;SDS011;8401;52.528;13.340;2023-04-06T06:17:06;16.97;;;8.13;;
16577;SDS011;8401;52.528;13.340;2023-04-06T06:19:31;13.97;;;8.17;;
16577;SDS011;8401;52.528;13.340;2023-04-06T06:21:57;11.57;;;7.90;;
16577;SDS011;8401;52.528;13.340;2023-04-06T06:24:23;11.83;;;7.97;;
16577;SDS011;8401;52.528;13.340;2023-04-06T06:26:49;12.37;;;8.10;;
16577;SDS011;8401;52.528;13.340;2023-04-06T06:29:15;12.17;;;7.53;;
16577;SDS011;8401;52.528;13.340;2023-04-06T06:31:40;14.07;;;7.60;;
16577;SDS011;8401;52.528;13.340;2023-04-06T06:34:06;13.13;;;7.63;;
16577;SDS011;8401;52.528;13.340;2023-04-06T06:36:32;11.87;;;7.20;;
16577;SDS011;8401;52.528;13.340;2023-04-06T06:38:57;9.93;;;6.60;;
16577;SDS011;8401;52.528;13.340;2023-04-06T06:41:25;10.67;;;7.13;;
16577;SDS011;8401;52.528;13.340;2023-04-06T06:43:51;12.63;;;6.83;;
16577;SDS011;8401;52.528;13.340;2023-04-06T06:46:17;10.87;;;6.47;;
16577;SDS011;8401;52.528;13.340;2023-04-06T06:48:42;7.67;;;5.93;;
16577;SDS011;8401;52.528;13.340;2023-04-06T06:51:08;8.77;;;6.17;;
16577;SDS011;8401;52.528;13.340;2023-04-06T06:53:34;8.53;;;6.20;;
16577;SDS011;8401;52.528;13.340;2023-04-06T06:56:00;12.33;;;6.53;;
16577;SDS011;8401;52.528;13.340;2023-04-06T06:58:26;8.40;;;6.50;;
16577;SDS011;8401;52.528;13.340;2023-04-06T07:00:55;10.47;;;6.33;;
16577;SDS011;8401;52.528;13.340;2023-04-06T07:03:22;6.87;;;6.10;;
16577;SDS011;8401;52.528;13.340;2023-04-06T07:05:48;8.77;;;6.33;;
16577;SDS011;8401;52.528;13.340;2023-04-06T07:08:18;11.03;;;6.00;;
16577;SDS011;8401;52.528;13.340;2023-04-06T07:10:48;11.00;;;6.47;;
16577;SDS011;8401;52.528;13.340;2023-04-06T07:13:16;7.63;;;5.57;;
16577;SDS011;8401;52.528;13.340;2023-04-06T07:15:46;11.93;;;5.57;;
16577;SDS011;8401;52.528;13.340;2023-04-06T07:18:12;7.87;;;5.80;;
16577;SDS011;8401;52.528;13.340;2023-04-06T07:20:38;10.50;;;5.40;;
16577;SDS011;8401;52.528;13.340;2023-04-06T07:23:04;9.97;;;5.50;;
16577;SDS011;8401;52.528;13.340;2023-04-06T07:25:30;6.57;;;5.67;;
16577;SDS011;8401;52.528;13.340;2023-04-06T07:27:55;7.83;;;5.50;;
16577;SDS011;8401;52.528;13.340;2023-04-06T07:30:21;7.93;;;5.73;;
16577;SDS011;8401;52.528;13.340;2023-04-06T07:32:47;5.83;;;5.07;;
16577;SDS011;8401;52.528;13.340;2023-04-06T07:35:14;8.63;;;5.40;;
16577;SDS011;8401;52.528;13.340;2023-04-06T07:37:39;8.23;;;5.30;;
16577;SDS011;8401;52.528;13.340;2023-04-06T07:40:05;5.27;;;4.27;;
16577;SDS011;8401;52.528;13.340;2023-04-06T07:42:31;8.77;;;4.50;;
16577;SDS011;8401;52.528;13.340;2023-04-06T07:44:58;6.30;;;4.67;;
16577;SDS011;8401;52.528;13.340;2023-04-06T07:47:23;5.27;;;4.57;;
16577;SDS011;8401;52.528;13.340;2023-04-06T07:49:49;6.30;;;3.87;;
16577;SDS011;8401;52.528;13.340;2023-04-06T07:52:15;7.43;;;4.50;;
16577;SDS011;8401;52.528;13.340;2023-04-06T07:54:41;7.57;;;4.17;;
16577;SDS011;8401;52.528;13.340;2023-04-06T07:57:07;7.83;;;4.13;;
16577;SDS011;8401;52.528;13.340;2023-04-06T07:59:32;5.40;;;4.03;;
16577;SDS011;8401;52.528;13.340;2023-04-06T08:01:58;10.73;;;3.83;;
16577;SDS011;8401;52.528;13.340;2023-04-06T08:04:24;6.13;;;3.93;;
16577;SDS011;8401;52.528;13.340;2023-04-06T08:06:50;6.97;;;3.90;;
16577;SDS011;8401;52.528;13.340;2023-04-06T08:09:15;6.17;;;3.90;;
16577;SDS011;8401;52.528;13.340;2023-04-06T08:11:41;7.37;;;4.43;;
16577;SDS011;8401;52.528;13.340;2023-04-06T08:14:07;5.30;;;3.60;;
16577;SDS011;8401;52.528;13.340;2023-04-06T08:16:32;4.83;;;3.83;;
16577;SDS011;8401;52.528;13.340;2023-04-06T08:18:58;6.83;;;3.67;;
16577;SDS011;8401;52.528;13.340;2023-04-06T08:21:24;6.63;;;3.30;;
16577;SDS011;8401;52.528;13.340;2023-04-06T08:23:50;6.20;;;3.70;;
16577;SDS011;8401;52.528;13.340;2023-04-06T08:26:15;4.90;;;3.77;;
16577;SDS011;8401;52.528;13.340;2023-04-06T08:28:41;5.13;;;3.10;;
16577;SDS011;8401;52.528;13.340;2023-04-06T08:31:07;6.80;;;3.40;;
16577;SDS011;8401;52.528;13.340;2023-04-06T08:33:33;5.70;;;2.90;;
16577;SDS011;8401;52.528;13.340;2023-04-06T08:36:14;4.73;;;2.60;;
16577;SDS011;8401;52.528;13.340;2023-04-06T08:38:41;4.23;;;2.87;;
16577;SDS011;8401;52.528;13.340;2023-04-06T08:41:11;4.30;;;2.80;;
16577;SDS011;8401;52.528;13.340;2023-04-06T08:43:42;3.97;;;2.83;;
16577;SDS011;8401;52.528;13.340;2023-04-06T08:46:11;3.53;;;2.90;;
16577;SDS011;8401;52.528;13.340;2023-04-06T08:48:41;4.27;;;2.97;;
16577;SDS011;8401;52.528;13.340;2023-04-06T08:51:08;7.43;;;3.20;;
16577;SDS011;8401;52.528;13.340;2023-04-06T08:53:35;4.03;;;2.23;;
16577;SDS011;8401;52.528;13.340;2023-04-06T08:56:01;3.87;;;2.33;;
16577;SDS011;8401;52.528;13.340;2023-04-06T08:58:28;3.73;;;2.40;;
16577;SDS011;8401;52.528;13.340;2023-04-06T09:01:02;3.03;;;2.70;;
16577;SDS011;8401;52.528;13.340;2023-04-06T09:03:31;4.90;;;2.70;;
16577;SDS011;8401;52.528;13.340;2023-04-06T09:06:01;3.13;;;2.43;;
16577;SDS011;8401;52.528;13.340;2023-04-06T09:08:29;2.73;;;2.40;;
16577;SDS011;8401;52.528;13.340;2023-04-06T09:10:55;3.63;;;2.30;;
16577;SDS011;8401;52.528;13.340;2023-04-06T09:13:20;3.17;;;2.30;;
16577;SDS011;8401;52.528;13.340;2023-04-06T09:15:46;4.10;;;2.50;;
16577;SDS011;8401;52.528;13.340;2023-04-06T09:18:29;2.38;;;1.85;;
16577;SDS011;8401;52.528;13.340;2023-04-06T09:20:57;3.85;;;2.28;;
16577;SDS011;8401;52.528;13.340;2023-04-06T09:23:25;2.90;;;2.10;;
16577;SDS011;8401;52.528;13.340;2023-04-06T09:25:51;3.35;;;2.28;;
16577;SDS011;8401;52.528;13.340;2023-04-06T09:28:17;2.70;;;2.13;;
16577;SDS011;8401;52.528;13.340;2023-04-06T09:30:49;3.53;;;2.10;;
16577;SDS011;8401;52.528;13.340;2023-04-06T09:33:21;3.65;;;1.90;;
16577;SDS011;8401;52.528;13.340;2023-04-06T09:35:51;2.22;;;2.03;;
16577;SDS011;8401;52.528;13.340;2023-04-06T09:38:16;2.60;;;1.98;;
16577;SDS011;8401;52.528;13.340;2023-04-06T09:40:51;2.53;;;1.70;;
16577;SDS011;8401;52.528;13.340;2023-04-06T09:43:24;3.65;;;2.10;;
16577;SDS011;8401;52.528;13.340;2023-04-06T09:45:51;3.03;;;2.03;;
16577;SDS011;8401;52.528;13.340;2023-04-06T09:48:18;3.57;;;2.17;;
16577;SDS011;8401;52.528;13.340;2023-04-06T09:50:46;1.92;;;1.35;;
16577;SDS011;8401;52.528;13.340;2023-04-06T09:53:14;1.60;;;1.50;;
16577;SDS011;8401;52.528;13.340;2023-04-06T09:55:44;2.47;;;1.85;;
16577;SDS011;8401;52.528;13.340;2023-04-06T09:58:13;2.03;;;1.63;;
16577;SDS011;8401;52.528;13.340;2023-04-06T10:00:56;3.45;;;1.77;;
16577;SDS011;8401;52.528;13.340;2023-04-06T10:06:04;2.08;;;1.90;;
16577;SDS011;8401;52.528;13.340;2023-04-06T10:08:33;3.03;;;2.10;;
16577;SDS011;8401;52.528;13.340;2023-04-06T10:11:01;2.65;;;2.10;;
16577;SDS011;8401;52.528;13.340;2023-04-06T10:13:27;4.53;;;1.70;;
16577;SDS011;8401;52.528;13.340;2023-04-06T10:15:54;2.75;;;1.98;;
16577;SDS011;8401;52.528;13.340;2023-04-06T10:18:20;2.75;;;1.70;;
16577;SDS011;8401;52.528;13.340;2023-04-06T10:20:51;3.88;;;1.77;;
16577;SDS011;8401;52.528;13.340;2023-04-06T10:23:27;3.33;;;1.60;;
16577;SDS011;8401;52.528;13.340;2023-04-06T10:25:58;2.08;;;1.45;;
16577;SDS011;8401;52.528;13.340;2023-04-06T10:28:25;3.13;;;1.60;;
16577;SDS011;8401;52.528;13.340;2023-04-06T10:30:59;2.70;;;1.73;;
16577;SDS011;8401;52.528;13.340;2023-04-06T10:33:26;2.78;;;1.95;;
16577;SDS011;8401;52.528;13.340;2023-04-06T10:35:52;3.65;;;2.03;;
16577;SDS011;8401;52.528;13.340;2023-04-06T10:38:20;2.80;;;1.70;;
16577;SDS011;8401;52.528;13.340;2023-04-06T10:40:47;3.58;;;2.13;;
16577;SDS011;8401;52.528;13.340;2023-04-06T10:43:20;2.97;;;2.03;;
16577;SDS011;8401;52.528;13.340;2023-04-06T10:45:57;5.67;;;2.67;;
16577;SDS011;8401;52.528;13.340;2023-04-06T10:48:25;2.33;;;1.83;;
16577;SDS011;8401;52.528;13.340;2023-04-06T10:51:00;4.20;;;2.10;;
16577;SDS011;8401;52.528;13.340;2023-04-06T10:53:26;3.27;;;1.77;;
16577;SDS011;8401;52.528;13.340;2023-04-06T10:55:56;2.33;;;2.00;;
16577;SDS011;8401;52.528;13.340;2023-04-06T10:58:25;2.13;;;1.90;;
16577;SDS011;8401;52.528;13.340;2023-04-06T11:00:52;3.20;;;1.93;;
16577;SDS011;8401;52.528;13.340;2023-04-06T11:03:19;2.30;;;1.95;;
16577;SDS011;8401;52.528;13.340;2023-04-06T11:05:45;1.95;;;1.83;;
16577;SDS011;8401;52.528;13.340;2023-04-06T11:08:29;2.85;;;1.73;;
16577;SDS011;8401;52.528;13.340;2023-04-06T11:16:15;2.97;;;1.90;;
16577;SDS011;8401;52.528;13.340;2023-04-06T11:21:45;2.42;;;1.67;;
16577;SDS011;8401;52.528;13.340;2023-04-06T11:24:22;2.55;;;1.88;;
16577;SDS011;8401;52.528;13.340;2023-04-06T11:29:22;4.22;;;2.10;;
16577;SDS011;8401;52.528;13.340;2023-04-06T11:31:50;3.65;;;2.25;;
16577;SDS011;8401;52.528;13.340;2023-04-06T11:34:23;3.22;;;1.90;;
16577;SDS011;8401;52.528;13.340;2023-04-06T11:37:03;2.30;;;1.92;;
16577;SDS011;8401;52.528;13.340;2023-04-06T11:39:32;3.45;;;2.08;;
16577;SDS011;8401;52.528;13.340;2023-04-06T11:42:06;4.00;;;2.13;;
16577;SDS011;8401;52.528;13.340;2023-04-06T11:44:39;3.10;;;1.98;;
16577;SDS011;8401;52.528;13.340;2023-04-06T11:47:11;2.37;;;1.93;;
16577;SDS011;8401;52.528;13.340;2023-04-06T11:49:38;2.97;;;2.30;;
16577;SDS011;8401;52.528;13.340;2023-04-06T11:54:41;2.67;;;2.00;;
16577;SDS011;8401;52.528;13.340;2023-04-06T11:57:07;2.47;;;2.27;;
16577;SDS011;8401;52.528;13.340;2023-04-06T11:59:33;3.93;;;2.27;;
16577;SDS011;8401;52.528;13.340;2023-04-06T12:01:59;3.97;;;2.43;;
16577;SDS011;8401;52.528;13.340;2023-04-06T12:04:27;4.33;;;2.30;;
16577;SDS011;8401;52.528;13.340;2023-04-06T12:06:52;2.17;;;1.97;;
16577;SDS011;8401;52.528;13.340;2023-04-06T12:09:18;2.93;;;2.53;;
16577;SDS011;8401;52.528;13.340;2023-04-06T12:11:44;2.90;;;2.10;;
16577;SDS011;8401;52.528;13.340;2023-04-06T12:14:10;3.93;;;2.17;;
16577;SDS011;8401;52.528;13.340;2023-04-06T12:16:36;3.70;;;2.20;;
16577;SDS011;8401;52.528;13.340;2023-04-06T12:19:02;2.80;;;2.10;;
16577;SDS011;8401;52.528;13.340;2023-04-06T12:21:28;2.40;;;1.80;;
16577;SDS011;8401;52.528;13.340;2023-04-06T12:23:56;4.57;;;2.20;;
16577;SDS011;8401;52.528;13.340;2023-04-06T12:26:22;3.00;;;2.10;;
16577;SDS011;8401;52.528;13.340;2023-04-06T12:28:47;2.73;;;2.07;;
16577;SDS011;8401;52.528;13.340;2023-04-06T12:31:16;3.87;;;2.33;;
16577;SDS011;8401;52.528;13.340;2023-04-06T12:33:43;3.60;;;2.27;;
16577;SDS011;8401;52.528;13.340;2023-04-06T12:36:12;5.23;;;1.97;;
16577;SDS011;8401;52.528;13.340;2023-04-06T12:38:39;2.97;;;2.57;;
16577;SDS011;8401;52.528;13.340;2023-04-06T12:41:06;2.37;;;2.00;;
16577;SDS011;8401;52.528;13.340;2023-04-06T12:43:32;3.40;;;2.00;;
16577;SDS011;8401;52.528;13.340;2023-04-06T12:45:58;2.73;;;1.90;;
16577;SDS011;8401;52.528;13.340;2023-04-06T12:48:24;2.43;;;2.13;;
16577;SDS011;8401;52.528;13.340;2023-04-06T12:50:59;2.70;;;2.07;;
16577;SDS011;8401;52.528;13.340;2023-04-06T12:53:27;3.17;;;2.20;;
16577;SDS011;8401;52.528;13.340;2023-04-06T12:55:53;2.43;;;2.13;;
16577;SDS011;8401;52.528;13.340;2023-04-06T12:58:20;3.37;;;2.50;;
16577;SDS011;8401;52.528;13.340;2023-04-06T13:00:47;4.20;;;2.20;;
16577;SDS011;8401;52.528;13.340;2023-04-06T13:03:14;3.77;;;2.40;;
16577;SDS011;8401;52.528;13.340;2023-04-06T13:05:46;4.50;;;2.57;;
16577;SDS011;8401;52.528;13.340;2023-04-06T13:08:12;2.70;;;2.30;;
16577;SDS011;8401;52.528;13.340;2023-04-06T13:10:49;4.10;;;2.43;;
16577;SDS011;8401;52.528;13.340;2023-04-06T13:13:17;3.40;;;2.83;;
16577;SDS011;8401;52.528;13.340;2023-04-06T13:15:45;6.03;;;2.77;;
16577;SDS011;8401;52.528;13.340;2023-04-06T13:18:11;2.80;;;2.50;;
16577;SDS011;8401;52.528;13.340;2023-04-06T13:20:37;2.70;;;2.00;;
16577;SDS011;8401;52.528;13.340;2023-04-06T13:23:02;3.20;;;2.10;;
16577;SDS011;8401;52.528;13.340;2023-04-06T13:25:29;3.00;;;2.70;;
16577;SDS011;8401;52.528;13.340;2023-04-06T13:27:55;3.10;;;2.30;;
16577;SDS011;8401;52.528;13.340;2023-04-06T13:30:21;3.73;;;2.60;;
16577;SDS011;8401;52.528;13.340;2023-04-06T13:32:47;2.73;;;2.30;;
16577;SDS011;8401;52.528;13.340;2023-04-06T13:35:13;4.63;;;2.73;;
16577;SDS011;8401;52.528;13.340;2023-04-06T13:37:38;3.60;;;2.57;;
16577;SDS011;8401;52.528;13.340;2023-04-06T13:40:04;4.47;;;2.60;;
16577;SDS011;8401;52.528;13.340;2023-04-06T13:42:31;5.50;;;2.63;;
16577;SDS011;8401;52.528;13.340;2023-04-06T13:44:57;3.80;;;2.57;;
16577;SDS011;8401;52.528;13.340;2023-04-06T13:47:24;7.63;;;3.03;;
16577;SDS011;8401;52.528;13.340;2023-04-06T13:49:50;5.33;;;3.40;;
16577;SDS011;8401;52.528;13.340;2023-04-06T13:52:17;3.43;;;2.57;;
16577;SDS011;8401;52.528;13.340;2023-04-06T13:54:43;4.17;;;3.30;;
16577;SDS011;8401;52.528;13.340;2023-04-06T13:57:10;3.33;;;2.47;;
16577;SDS011;8401;52.528;13.340;2023-04-06T13:59:36;4.07;;;2.70;;
16577;SDS011;8401;52.528;13.340;2023-04-06T14:02:03;3.70;;;3.20;;
16577;SDS011;8401;52.528;13.340;2023-04-06T14:04:30;4.03;;;2.80;;
16577;SDS011;8401;52.528;13.340;2023-04-06T14:06:57;4.70;;;2.63;;
16577;SDS011;8401;52.528;13.340;2023-04-06T14:09:23;3.47;;;2.80;;
16577;SDS011;8401;52.528;13.340;2023-04-06T14:11:49;3.43;;;2.80;;
16577;SDS011;8401;52.528;13.340;2023-04-06T14:14:15;2.90;;;2.60;;
16577;SDS011;8401;52.528;13.340;2023-04-06T14:16:42;3.47;;;2.80;;
16577;SDS011;8401;52.528;13.340;2023-04-06T14:19:11;3.20;;;2.90;;
16577;SDS011;8401;52.528;13.340;2023-04-06T14:21:39;3.17;;;2.63;;
16577;SDS011;8401;52.528;13.340;2023-04-06T14:24:08;4.00;;;2.40;;
16577;SDS011;8401;52.528;13.340;2023-04-06T14:26:38;3.50;;;2.67;;
16577;SDS011;8401;52.528;13.340;2023-04-06T14:29:04;4.97;;;2.30;;
16577;SDS011;8401;52.528;13.340;2023-04-06T14:31:31;3.67;;;2.23;;
16577;SDS011;8401;52.528;13.340;2023-04-06T14:33:57;3.20;;;2.40;;
16577;SDS011;8401;52.528;13.340;2023-04-06T14:36:25;3.63;;;2.60;;
16577;SDS011;8401;52.528;13.340;2023-04-06T14:38:54;3.60;;;2.50;;
16577;SDS011;8401;52.528;13.340;2023-04-06T14:41:22;4.57;;;2.43;;
16577;SDS011;8401;52.528;13.340;2023-04-06T14:43:49;3.07;;;2.53;;
16577;SDS011;8401;52.528;13.340;2023-04-06T14:46:17;5.03;;;3.87;;
16577;SDS011;8401;52.528;13.340;2023-04-06T14:48:44;4.50;;;3.17;;
16577;SDS011;8401;52.528;13.340;2023-04-06T14:51:10;4.37;;;2.97;;
16577;SDS011;8401;52.528;13.340;2023-04-06T14:53:36;4.37;;;2.40;;
16577;SDS011;8401;52.528;13.340;2023-04-06T14:56:02;3.10;;;2.40;;
16577;SDS011;8401;52.528;13.340;2023-04-06T14:58:28;5.07;;;2.40;;
16577;SDS011;8401;52.528;13.340;2023-04-06T15:01:00;4.20;;;2.27;;